Time;durP1;ratioP1;P1;durP2;ratioP2;P2;SDS_P1;SDS_P2;PMS_P1;PMS_P2;Temp;Humidity;BMP_temperature;BMP_pressure;BME280_temperature;BME280_humidity;BME280_pressure;Samples;Min_cycle;Max_cycle;Signal;HPM_P1;HPM_P2
2021/05/23 00:02:07;;;;;;;11.48;5.70;;;16.20;99.90;;;;;;4936551;29;20027;-75
2021/05/23 00:04:33;;;;;;;9.75;6.47;;;16.70;99.90;;;;;;4936909;29;20440;-78
2021/05/23 00:06:59;;;;;;;14.15;7.60;;;16.90;99.90;;;;;;4936537;29;20460;-77
2021/05/23 00:09:26;;;;;;;13.02;6.97;;;16.90;99.90;;;;;;4919698;29;20054;-77
2021/05/23 00:11:52;;;;;;;11.77;7.05;;;16.90;99.90;;;;;;4919487;29;20023;-78
2021/05/23 00:14:19;;;;;;;11.73;5.82;;;16.90;99.90;;;;;;4933076;29;20038;-77
2021/05/23 00:16:45;;;;;;;11.15;7.32;;;16.90;99.90;;;;;;4909094;29;20016;-77
2021/05/23 00:19:11;;;;;;;13.00;6.90;;;16.60;99.90;;;;;;4926834;29;20046;-76
2021/05/23 00:21:37;;;;;;;11.93;6.65;;;16.60;99.90;;;;;;4925306;29;20031;-78
2021/05/23 00:24:04;;;;;;;13.32;6.82;;;16.50;99.90;;;;;;4923938;29;20040;-77
2021/05/23 00:26:30;;;;;;;14.27;6.57;;;16.60;99.90;;;;;;4917639;29;20365;-77
2021/05/23 00:28:56;;;;;;;9.82;5.43;;;16.60;99.90;;;;;;4918069;29;20168;-78
2021/05/23 00:31:22;;;;;;;9.07;4.75;;;16.20;99.90;;;;;;4922138;29;20098;-75
2021/05/23 00:33:48;;;;;;;8.70;5.40;;;15.70;99.90;;;;;;4926678;29;20024;-78
2021/05/23 00:36:13;;;;;;;11.35;4.80;;;15.40;99.90;;;;;;4928020;29;20024;-77
2021/05/23 00:38:40;;;;;;;8.82;5.60;;;15.60;99.90;;;;;;4925529;29;20399;-76
2021/05/23 00:41:06;;;;;;;8.70;4.95;;;16.00;99.90;;;;;;4908369;29;20039;-79
2021/05/23 00:43:32;;;;;;;9.73;5.00;;;15.70;99.90;;;;;;4926685;29;20027;-78
2021/05/23 00:45:58;;;;;;;8.88;5.50;;;15.60;99.90;;;;;;4930828;29;20028;-78
2021/05/23 00:48:24;;;;;;;8.30;4.82;;;15.40;99.90;;;;;;4912105;29;20032;-77
2021/05/23 00:50:51;;;;;;;7.38;5.22;;;15.70;99.90;;;;;;4927764;29;20031;-75
2021/05/23 00:53:17;;;;;;;8.40;5.53;;;16.10;99.90;;;;;;4933782;29;20399;-77
2021/05/23 00:55:43;;;;;;;8.82;5.78;;;15.90;99.90;;;;;;4955092;28;20034;-78
2021/05/23 00:58:10;;;;;;;9.68;5.63;;;16.00;99.90;;;;;;4954999;28;20493;-78
2021/05/23 01:00:43;;;;;;;9.32;5.68;;;16.00;99.90;;;;;;4954922;28;20038;-76
2021/05/23 01:06:05;;;;;;;9.23;5.82;;;16.20;99.90;;;;;;4954851;28;20042;-82
2021/05/23 01:08:36;;;;;;;10.80;5.40;;;16.10;99.90;;;;;;4955524;28;20035;-82
2021/05/23 01:11:04;;;;;;;;;;;15.90;99.90;;;;;;4956059;29;20047;-80
2021/05/23 01:13:36;;;;;;;9.77;6.80;;;16.00;99.90;;;;;;4954925;29;19906;-81
2021/05/23 01:16:11;;;;;;;9.43;5.88;;;16.00;99.90;;;;;;4954711;28;20031;-82
2021/05/23 01:18:50;;;;;;;11.65;5.47;;;16.20;99.90;;;;;;4954023;28;20062;-80
2021/05/23 01:21:20;;;;;;;13.55;6.40;;;16.00;99.90;;;;;;4953916;28;20373;-82
2021/05/23 01:23:54;;;;;;;8.77;5.28;;;16.10;99.90;;;;;;4952678;29;20126;-80
2021/05/23 01:26:25;;;;;;;10.32;6.32;;;16.10;99.90;;;;;;4947279;29;20027;-81
2021/05/23 01:29:00;;;;;;;11.63;6.40;;;16.00;99.90;;;;;;4953462;28;20023;-81
2021/05/23 01:31:29;;;;;;;10.30;5.55;;;15.80;99.90;;;;;;4951749;29;20033;-82
2021/05/23 01:33:56;;;;;;;9.13;5.82;;;15.80;99.90;;;;;;4953464;28;20051;-81
2021/05/23 01:36:26;;;;;;;9.90;5.93;;;15.80;99.90;;;;;;4951092;29;20047;-80
2021/05/23 01:38:54;;;;;;;8.40;5.90;;;15.90;99.90;;;;;;4954098;28;20023;-82
2021/05/23 01:41:22;;;;;;;12.32;5.95;;;15.90;99.90;;;;;;4953293;28;20059;-79
2021/05/23 01:43:48;;;;;;;7.95;5.38;;;15.80;99.90;;;;;;4952946;29;20078;-81
2021/05/23 01:46:14;;;;;;;9.10;5.85;;;15.80;99.90;;;;;;4953352;29;20126;-79
2021/05/23 01:48:41;;;;;;;10.65;6.10;;;15.80;99.90;;;;;;4954605;28;20028;-80
2021/05/23 01:51:07;;;;;;;9.85;5.57;;;15.80;99.90;;;;;;4954495;29;20106;-80
2021/05/23 01:53:35;;;;;;;10.23;5.35;;;15.60;99.90;;;;;;4952708;29;20051;-81
2021/05/23 01:56:01;;;;;;;9.27;5.65;;;15.70;99.90;;;;;;4953256;29;20059;-83
2021/05/23 01:58:27;;;;;;;8.82;5.45;;;15.70;99.90;;;;;;4952897;29;20034;-81
2021/05/23 02:00:53;;;;;;;8.63;6.03;;;15.70;99.90;;;;;;4953973;29;20102;-80
2021/05/23 02:03:21;;;;;;;8.63;5.80;;;15.70;99.90;;;;;;4954235;29;20038;-80
2021/05/23 02:05:55;;;;;;;10.75;5.80;;;15.60;99.90;;;;;;4953960;29;20054;-78
2021/05/23 02:08:25;;;;;;;8.02;5.45;;;15.60;99.90;;;;;;4954066;29;20450;-80
2021/05/23 02:10:52;;;;;;;10.13;6.97;;;15.60;99.90;;;;;;4952875;29;20038;-80
2021/05/23 02:13:19;;;;;;;8.48;5.40;;;15.60;99.90;;;;;;4953725;29;20031;-79
2021/05/23 02:15:46;;;;;;;13.23;6.00;;;15.50;99.90;;;;;;4954214;29;20378;-79
2021/05/23 02:18:12;;;;;;;8.23;5.75;;;15.40;99.90;;;;;;4952813;29;20032;-81
2021/05/23 02:20:38;;;;;;;7.80;6.00;;;15.30;99.90;;;;;;4951988;28;20082;-78
2021/05/23 02:23:06;;;;;;;8.30;5.72;;;15.40;99.90;;;;;;4954201;29;20039;-78
2021/05/23 02:25:33;;;;;;;8.85;5.15;;;15.50;99.90;;;;;;4953776;29;20034;-78
2021/05/23 02:28:02;;;;;;;9.18;5.13;;;15.40;99.90;;;;;;4952198;28;20032;-78
2021/05/23 02:30:30;;;;;;;8.95;5.50;;;15.40;99.90;;;;;;4952715;29;20030;-78
2021/05/23 02:32:57;;;;;;;8.27;5.28;;;15.40;99.90;;;;;;4953797;29;20498;-79
2021/05/23 02:35:25;;;;;;;8.18;5.22;;;15.40;99.90;;;;;;4953674;29;20023;-78
2021/05/23 02:37:52;;;;;;;13.27;5.28;;;15.30;99.90;;;;;;4953738;29;20055;-79
2021/05/23 02:40:21;;;;;;;7.13;4.65;;;15.20;99.90;;;;;;4953665;29;20499;-76
2021/05/23 02:42:48;;;;;;;8.55;5.90;;;15.20;99.90;;;;;;4953178;29;20154;-79
2021/05/23 02:45:15;;;;;;;9.38;5.45;;;15.30;99.90;;;;;;4953518;29;20392;-80
2021/05/23 02:47:42;;;;;;;8.77;5.40;;;15.40;99.90;;;;;;4953390;29;20038;-80
2021/05/23 02:50:12;;;;;;;7.90;5.07;;;15.20;99.90;;;;;;4953400;28;20031;-81
2021/05/23 02:52:38;;;;;;;9.77;5.70;;;15.10;99.90;;;;;;4951851;28;20067;-79
2021/05/23 02:55:06;;;;;;;10.02;5.22;;;15.20;99.90;;;;;;4953304;28;20032;-80
2021/05/23 02:57:36;;;;;;;8.70;5.25;;;15.20;99.90;;;;;;4952866;28;20352;-79
2021/05/23 03:00:05;;;;;;;7.53;4.85;;;15.30;99.90;;;;;;4952270;29;20487;-78
2021/05/23 03:02:31;;;;;;;8.65;5.15;;;15.20;99.90;;;;;;4953205;28;20031;-81
2021/05/23 03:04:56;;;;;;;9.77;5.95;;;15.30;99.90;;;;;;4953093;28;20023;-77
2021/05/23 03:07:22;;;;;;;12.57;5.70;;;15.30;99.90;;;;;;4951782;29;20058;-80
2021/05/23 03:09:48;;;;;;;8.75;5.53;;;15.20;99.90;;;;;;4953250;28;20042;-79
2021/05/23 03:12:15;;;;;;;9.43;5.70;;;15.10;99.90;;;;;;4952699;29;20027;-79
2021/05/23 03:14:41;;;;;;;8.85;5.85;;;15.10;99.90;;;;;;4953300;28;20023;-80
2021/05/23 03:17:11;;;;;;;8.63;5.80;;;15.00;99.90;;;;;;4953061;28;20109;-79
2021/05/23 03:19:37;;;;;;;9.32;5.72;;;15.00;99.90;;;;;;4953170;28;20050;-79
2021/05/23 03:22:05;;;;;;;7.03;5.38;;;15.10;99.90;;;;;;4952778;28;20028;-79
2021/05/23 03:24:31;;;;;;;7.78;4.95;;;14.90;99.90;;;;;;4953180;28;20068;-79
2021/05/23 03:26:57;;;;;;;7.95;5.63;;;14.70;99.90;;;;;;4951584;29;20023;-79
2021/05/23 03:29:23;;;;;;;9.10;5.35;;;14.80;99.90;;;;;;4953097;28;20395;-78
2021/05/23 03:31:48;;;;;;;9.88;5.70;;;14.70;99.90;;;;;;4951957;29;20495;-78
2021/05/23 03:34:14;;;;;;;7.57;5.28;;;14.20;99.90;;;;;;4953743;29;20061;-77
2021/05/23 03:36:40;;;;;;;10.63;5.22;;;14.00;99.90;;;;;;4952843;28;20027;-79
2021/05/23 03:39:06;;;;;;;11.27;5.60;;;14.50;99.90;;;;;;4952747;28;20043;-79
2021/05/23 03:41:32;;;;;;;7.22;5.00;;;14.70;99.90;;;;;;4953047;29;20051;-79
2021/05/23 03:43:58;;;;;;;8.35;4.47;;;14.80;99.90;;;;;;4952487;28;20507;-79
2021/05/23 03:46:23;;;;;;;7.68;4.60;;;14.90;99.90;;;;;;4953364;28;20494;-75
2021/05/23 03:48:49;;;;;;;11.15;4.55;;;15.00;99.90;;;;;;4952649;29;20380;-78
2021/05/23 03:51:15;;;;;;;7.25;4.38;;;14.50;99.90;;;;;;4944032;29;20114;-80
2021/05/23 03:53:41;;;;;;;7.20;4.32;;;13.90;99.90;;;;;;4943834;29;20492;-78
2021/05/23 03:56:06;;;;;;;5.95;4.00;;;13.80;99.90;;;;;;4933984;29;20385;-78
2021/05/23 03:58:32;;;;;;;7.53;4.43;;;14.30;99.90;;;;;;4933365;29;20028;-82
2021/05/23 04:00:58;;;;;;;5.63;3.92;;;14.70;99.90;;;;;;4933685;29;20062;-79
2021/05/23 04:03:26;;;;;;;9.18;3.92;;;14.90;99.90;;;;;;4933573;29;20047;-78
2021/05/23 04:05:52;;;;;;;8.48;3.90;;;15.00;99.90;;;;;;4933749;29;20027;-79
2021/05/23 04:08:18;;;;;;;5.50;3.50;;;15.00;99.90;;;;;;4933798;29;20111;-79
2021/05/23 04:10:52;;;;;;;7.28;3.88;;;14.70;99.90;;;;;;4933557;29;20078;-81
2021/05/23 04:13:20;;;;;;;7.68;4.30;;;14.10;99.90;;;;;;4932916;29;20043;-80
2021/05/23 04:15:46;;;;;;;6.10;4.38;;;14.20;99.90;;;;;;4933800;29;20019;-77
2021/05/23 04:18:12;;;;;;;7.22;3.88;;;14.40;99.90;;;;;;4933505;29;20028;-80
2021/05/23 04:20:38;;;;;;;7.97;4.10;;;14.50;99.90;;;;;;4933590;29;20051;-79
2021/05/23 04:23:04;;;;;;;5.10;3.63;;;14.20;99.90;;;;;;4933480;29;20053;-79
2021/05/23 04:25:30;;;;;;;8.07;4.85;;;14.70;99.90;;;;;;4933591;29;20036;-75
2021/05/23 04:27:56;;;;;;;5.50;3.90;;;14.90;99.90;;;;;;4933146;29;20384;-79
2021/05/23 04:30:25;;;;;;;6.07;3.92;;;15.10;99.90;;;;;;4933341;29;20030;-78
2021/05/23 04:32:50;;;;;;;8.38;3.85;;;15.20;99.90;;;;;;4933474;29;20032;-76
2021/05/23 04:35:16;;;;;;;6.85;3.63;;;15.30;99.90;;;;;;4933455;29;20052;-78
2021/05/23 04:37:44;;;;;;;7.38;3.25;;;15.20;99.90;;;;;;4933161;29;20038;-80
2021/05/23 04:40:11;;;;;;;4.97;3.42;;;15.20;99.90;;;;;;4933533;29;20063;-79
2021/05/23 04:42:37;;;;;;;7.03;3.60;;;15.40;99.90;;;;;;4934205;29;20032;-78
2021/05/23 04:45:05;;;;;;;6.80;3.60;;;15.50;99.90;;;;;;4936752;29;20051;-77
2021/05/23 04:47:32;;;;;;;6.22;3.85;;;15.30;99.90;;;;;;4936725;29;20032;-80
2021/05/23 04:49:58;;;;;;;7.30;4.00;;;15.50;99.90;;;;;;4951995;29;20420;-81
2021/05/23 04:52:24;;;;;;;7.18;3.67;;;15.60;99.90;;;;;;4955389;29;20118;-80
2021/05/23 04:54:50;;;;;;;8.25;3.50;;;15.20;99.90;;;;;;4955561;29;20114;-79
2021/05/23 04:57:16;;;;;;;6.38;3.88;;;15.20;99.90;;;;;;4955709;29;20502;-77
2021/05/23 04:59:42;;;;;;;8.10;3.80;;;15.60;99.90;;;;;;4955387;29;20031;-80
2021/05/23 05:02:08;;;;;;;5.57;3.15;;;15.80;99.90;;;;;;4955614;29;20039;-82
2021/05/23 05:04:34;;;;;;;5.88;3.45;;;15.90;99.90;;;;;;4955270;29;20110;-82
2021/05/23 05:07:00;;;;;;;6.85;3.20;;;16.00;99.90;;;;;;4955261;29;20391;-80
2021/05/23 05:09:26;;;;;;;6.63;3.85;;;16.20;99.90;;;;;;4938000;29;20046;-81
2021/05/23 05:11:52;;;;;;;7.35;3.53;;;16.30;99.90;;;;;;4955290;29;20111;-81
2021/05/23 05:14:18;;;;;;;6.30;3.60;;;16.30;99.90;;;;;;4937711;29;20125;-79
2021/05/23 05:16:43;;;;;;;7.57;4.03;;;16.20;99.90;;;;;;4955380;29;20058;-79
2021/05/23 05:19:10;;;;;;;8.07;4.10;;;16.30;99.90;;;;;;4955147;29;20039;-79
2021/05/23 05:21:36;;;;;;;7.25;4.03;;;16.40;99.90;;;;;;4954987;29;20031;-78
2021/05/23 05:24:02;;;;;;;8.10;4.18;;;16.50;99.90;;;;;;4955193;29;20851;-79
2021/05/23 05:26:28;;;;;;;7.07;3.83;;;16.50;99.90;;;;;;4954969;29;20035;-80
2021/05/23 05:28:54;;;;;;;9.43;5.25;;;16.60;99.90;;;;;;4954960;28;20127;-81
2021/05/23 05:31:20;;;;;;;9.93;6.10;;;16.40;99.90;;;;;;4954606;29;20023;-79
2021/05/23 05:33:45;;;;;;;10.52;5.78;;;16.40;99.90;;;;;;4954935;29;20507;-76
2021/05/23 05:36:11;;;;;;;11.43;5.82;;;16.50;99.90;;;;;;4955125;29;20383;-81
2021/05/23 05:38:37;;;;;;;10.48;5.60;;;16.50;99.90;;;;;;4954350;29;20403;-78
2021/05/23 05:41:03;;;;;;;12.05;5.57;;;16.40;99.90;;;;;;4954849;29;20066;-80
2021/05/23 05:43:29;;;;;;;10.63;5.97;;;16.60;99.90;;;;;;4937354;29;20039;-80
2021/05/23 05:45:54;;;;;;;10.48;5.75;;;16.60;99.90;;;;;;4954571;29;20034;-79
2021/05/23 05:48:20;;;;;;;11.00;6.30;;;16.50;99.90;;;;;;4952137;29;20035;-79
2021/05/23 05:50:47;;;;;;;13.93;6.15;;;16.30;99.90;;;;;;4935089;29;20028;-79
2021/05/23 05:53:13;;;;;;;10.45;7.03;;;16.20;99.90;;;;;;4939803;28;20130;-79
2021/05/23 05:55:38;;;;;;;9.85;5.82;;;16.20;99.90;;;;;;4953857;28;20036;-79
2021/05/23 05:58:04;;;;;;;13.32;6.20;;;16.40;99.90;;;;;;4953489;29;20116;-80
2021/05/23 06:00:30;;;;;;;10.77;5.03;;;16.50;99.90;;;;;;4954455;29;20027;-78
2021/05/23 06:02:56;;;;;;;11.60;7.03;;;16.60;99.90;;;;;;4954200;29;20039;-80
2021/05/23 06:05:22;;;;;;;10.50;5.75;;;16.80;99.90;;;;;;4954217;28;20105;-80
2021/05/23 06:07:47;;;;;;;12.38;5.65;;;16.90;99.90;;;;;;4954527;28;20424;-78
2021/05/23 06:10:14;;;;;;;10.23;5.22;;;16.90;99.90;;;;;;4954047;29;20441;-79
2021/05/23 06:12:40;;;;;;;10.32;5.22;;;16.60;99.90;;;;;;4953972;28;20058;-77
2021/05/23 06:15:07;;;;;;;7.10;4.43;;;16.70;99.90;;;;;;4954101;28;20031;-79
2021/05/23 06:17:34;;;;;;;9.48;5.32;;;16.80;99.90;;;;;;4953750;28;20030;-77
2021/05/23 06:19:59;;;;;;;8.02;3.90;;;16.80;99.90;;;;;;4952679;29;20439;-80
2021/05/23 06:22:25;;;;;;;6.78;3.67;;;16.70;99.90;;;;;;4953853;28;20455;-80
2021/05/23 06:24:51;;;;;;;7.05;3.80;;;16.60;99.90;;;;;;4954022;28;20086;-78
2021/05/23 06:27:17;;;;;;;5.22;3.60;;;16.80;99.90;;;;;;4953528;28;20486;-79
2021/05/23 06:29:45;;;;;;;9.20;3.42;;;16.90;99.90;;;;;;4953845;28;20069;-81
2021/05/23 06:32:11;;;;;;;7.60;3.42;;;17.10;99.90;;;;;;4952434;29;20079;-81
2021/05/23 06:34:37;;;;;;;7.88;3.58;;;17.20;99.90;;;;;;4953714;28;20535;-81
2021/05/23 06:37:03;;;;;;;5.75;3.58;;;17.20;99.90;;;;;;4953799;28;20479;-82
2021/05/23 06:39:29;;;;;;;9.20;3.75;;;17.20;99.90;;;;;;4953893;28;20057;-79
2021/05/23 06:41:55;;;;;;;7.63;3.90;;;17.30;99.90;;;;;;4953177;28;20241;-79
2021/05/23 06:44:21;;;;;;;5.45;3.30;;;17.50;99.90;;;;;;4953516;28;20097;-80
2021/05/23 06:46:47;;;;;;;5.45;3.40;;;17.60;99.90;;;;;;4953616;28;20054;-81
2021/05/23 06:49:13;;;;;;;10.23;3.95;;;17.60;99.90;;;;;;4953184;28;20106;-83
2021/05/23 06:51:39;;;;;;;8.98;3.55;;;17.80;99.90;;;;;;4952549;29;20054;-82
2021/05/23 06:54:05;;;;;;;7.07;3.47;;;17.80;99.90;;;;;;4953379;29;20043;-80
2021/05/23 06:56:31;;;;;;;7.97;3.88;;;17.90;99.90;;;;;;4953179;29;20399;-78
2021/05/23 06:58:57;;;;;;;15.75;5.20;;;17.90;99.90;;;;;;4953461;29;20081;-78
2021/05/23 07:01:24;;;;;;;9.55;4.75;;;17.80;99.90;;;;;;4944588;29;20638;-75
2021/05/23 07:03:49;;;;;;;13.52;6.05;;;18.00;99.90;;;;;;4906730;29;20154;-78
2021/05/23 07:06:15;;;;;;;11.75;6.22;;;18.00;99.90;;;;;;4916071;29;20143;-77
2021/05/23 07:08:41;;;;;;;13.27;6.70;;;18.10;99.90;;;;;;4932857;29;20032;-76
2021/05/23 07:11:07;;;;;;;13.93;7.38;;;18.20;99.90;;;;;;4914286;29;20411;-75
2021/05/23 07:13:33;;;;;;;13.02;6.38;;;18.30;99.90;;;;;;4931883;29;20028;-76
2021/05/23 07:15:59;;;;;;;13.73;6.57;;;18.30;99.90;;;;;;4927882;29;20119;-77
2021/05/23 07:18:24;;;;;;;16.85;7.38;;;18.20;99.90;;;;;;4932596;29;20024;-78
2021/05/23 07:20:51;;;;;;;10.80;6.10;;;18.40;99.90;;;;;;4933160;29;20063;-83
2021/05/23 07:23:17;;;;;;;12.27;6.57;;;18.40;99.90;;;;;;4933401;29;20039;-80
2021/05/23 07:25:43;;;;;;;16.80;7.22;;;18.50;99.90;;;;;;4932869;29;20059;-78
2021/05/23 07:28:09;;;;;;;11.60;6.90;;;18.60;99.90;;;;;;4930325;29;20036;-74
2021/05/23 07:30:35;;;;;;;15.50;6.53;;;18.70;99.90;;;;;;4932706;29;20031;-74
2021/05/23 07:33:01;;;;;;;12.05;6.63;;;18.50;99.90;;;;;;4922078;29;20032;-78
2021/05/23 07:35:31;;;;;;;13.50;6.55;;;18.60;99.90;;;;;;4916724;29;20361;-78
2021/05/23 07:37:57;;;;;;;12.87;6.20;;;18.50;99.90;;;;;;4933009;29;20108;-75
2021/05/23 07:40:23;;;;;;;15.38;6.50;;;18.50;99.90;;;;;;4929296;29;20123;-78
2021/05/23 07:42:49;;;;;;;12.52;6.20;;;18.70;99.90;;;;;;4931884;29;20032;-75
2021/05/23 07:45:15;;;;;;;12.18;6.35;;;18.80;99.90;;;;;;4915612;29;20095;-76
2021/05/23 07:47:41;;;;;;;13.68;6.10;;;18.90;99.90;;;;;;4934210;29;20020;-78
2021/05/23 07:50:10;;;;;;;13.95;6.93;;;19.00;99.90;;;;;;4951510;29;20034;-76
2021/05/23 07:52:36;;;;;;;15.73;6.75;;;19.10;99.90;;;;;;4934524;29;20471;-74
2021/05/23 07:55:04;;;;;;;10.68;5.30;;;19.20;99.90;;;;;;4950958;29;20393;-81
2021/05/23 07:57:30;;;;;;;10.85;4.95;;;19.20;99.90;;;;;;4951628;29;20027;-80
2021/05/23 07:59:55;;;;;;;11.07;4.82;;;19.30;99.90;;;;;;4952272;29;20364;-76
2021/05/23 08:02:21;;;;;;;14.38;5.25;;;19.30;99.90;;;;;;4934739;29;20440;-78
2021/05/23 08:04:47;;;;;;;9.30;4.60;;;19.20;99.90;;;;;;4952484;29;20023;-77
2021/05/23 08:07:13;;;;;;;10.70;4.28;;;19.20;99.90;;;;;;4952103;29;20020;-78
2021/05/23 08:09:39;;;;;;;10.25;5.72;;;19.40;99.90;;;;;;4952296;29;20046;-78
2021/05/23 08:12:05;;;;;;;17.80;10.13;;;19.50;99.90;;;;;;4952491;29;20024;-78
2021/05/23 08:14:31;;;;;;;19.02;11.57;;;19.60;99.90;;;;;;4952149;29;20031;-79
2021/05/23 08:16:56;;;;;;;20.88;12.90;;;19.70;99.90;;;;;;4952499;28;20091;-78
2021/05/23 08:19:22;;;;;;;18.83;11.07;;;19.70;99.90;;;;;;4955896;29;20027;-80
2021/05/23 08:21:48;;;;;;;15.93;10.77;;;19.90;99.90;;;;;;4955425;29;20027;-78
2021/05/23 08:24:15;;;;;;;16.00;9.15;;;20.00;99.90;;;;;;4955810;29;20071;-80
2021/05/23 08:26:40;;;;;;;16.70;10.60;;;20.00;99.90;;;;;;4938655;29;20074;-82
2021/05/23 08:29:06;;;;;;;14.02;10.13;;;19.90;99.90;;;;;;4937925;29;20761;-79
2021/05/23 08:31:32;;;;;;;21.55;14.13;;;20.00;99.90;;;;;;4955979;29;20027;-78
2021/05/23 08:33:58;;;;;;;18.05;11.18;;;20.20;99.90;;;;;;4956020;29;20410;-76
2021/05/23 08:36:24;;;;;;;15.45;10.10;;;20.30;99.90;;;;;;4955331;29;20035;-82
2021/05/23 08:38:49;;;;;;;57.78;37.67;;;20.30;99.90;;;;;;4956047;29;20067;-81
2021/05/23 08:41:17;;;;;;;63.38;39.40;;;20.30;99.90;;;;;;4954752;29;20093;-82
2021/05/23 08:43:43;;;;;;;60.85;40.22;;;20.40;99.40;;;;;;4955294;29;20039;-79
2021/05/23 08:46:09;;;;;;;83.85;47.28;;;20.70;99.90;;;;;;4937964;29;20047;-76
2021/05/23 08:48:36;;;;;;;9.90;5.82;;;20.70;99.10;;;;;;4938327;29;20078;-80
2021/05/23 08:51:02;;;;;;;8.27;3.38;;;20.60;98.90;;;;;;4955402;29;20043;-76
2021/05/23 08:53:27;;;;;;;5.00;2.85;;;20.90;98.60;;;;;;4955186;29;20078;-79
2021/05/23 08:55:53;;;;;;;5.18;2.78;;;21.00;98.10;;;;;;4955677;29;20364;-79
2021/05/23 08:58:20;;;;;;;7.18;2.95;;;21.10;98.40;;;;;;4954985;29;20055;-79
2021/05/23 09:00:46;;;;;;;4.45;2.60;;;21.20;97.70;;;;;;4955239;29;20352;-80
2021/05/23 09:03:15;;;;;;;5.13;2.72;;;21.40;97.40;;;;;;4937941;29;20039;-80
2021/05/23 09:05:49;;;;;;;5.40;2.80;;;21.70;96.60;;;;;;4955452;29;20042;-81
2021/05/23 09:08:21;;;;;;;4.22;2.60;;;21.60;95.50;;;;;;4937820;29;20027;-80
2021/05/23 09:10:49;;;;;;;5.13;2.60;;;21.90;95.50;;;;;;4955094;29;20388;-78
2021/05/23 09:13:30;;;;;;;6.80;3.15;;;22.30;95.10;;;;;;4954847;29;20058;-81
2021/05/23 09:16:08;;;;;;;5.40;3.15;;;22.40;94.70;;;;;;4937977;29;20027;-78
2021/05/23 09:18:39;;;;;;;8.52;3.35;;;22.40;93.90;;;;;;4955072;29;20058;-77
2021/05/23 09:21:05;;;;;;;4.72;2.75;;;22.60;93.20;;;;;;4954759;29;20034;-81
2021/05/23 09:23:41;;;;;;;5.10;2.78;;;22.70;91.80;;;;;;4954992;29;20043;-79
2021/05/23 09:26:07;;;;;;;8.30;2.75;;;22.80;91.60;;;;;;4954566;29;20472;-80
2021/05/23 09:28:32;;;;;;;4.93;2.25;;;23.10;91.30;;;;;;4954429;28;20066;-81
2021/05/23 09:30:58;;;;;;;6.75;2.60;;;23.10;87.50;;;;;;4954782;29;20139;-83
2021/05/23 09:33:25;;;;;;;4.88;2.03;;;23.40;82.60;;;;;;4954656;29;20031;-77
2021/05/23 09:35:54;;;;;;;3.92;2.30;;;23.50;79.50;;;;;;4954577;29;20042;-77
2021/05/23 09:38:19;;;;;;;3.58;1.95;;;23.10;78.60;;;;;;4954609;29;20039;-81
2021/05/23 09:40:45;;;;;;;5.05;2.53;;;23.50;81.80;;;;;;4954112;29;20039;-80
2021/05/23 09:43:20;;;;;;;5.45;2.83;;;23.80;81.30;;;;;;4940728;29;20063;-77
2021/05/23 09:45:54;;;;;;;4.95;2.60;;;24.10;80.10;;;;;;4924694;29;20563;-77
2021/05/23 09:48:25;;;;;;;7.57;2.30;;;24.00;76.30;;;;;;4932896;29;20035;-77
2021/05/23 09:50:53;;;;;;;3.85;2.30;;;24.00;76.70;;;;;;4927323;29;20479;-78
2021/05/23 09:53:32;;;;;;;4.78;2.10;;;24.30;75.80;;;;;;4915000;29;20055;-77
2021/05/23 09:56:02;;;;;;;5.63;2.40;;;24.60;74.30;;;;;;4952127;28;20430;-77
2021/05/23 09:58:31;;;;;;;4.22;2.00;;;24.90;72.60;;;;;;4950611;28;20039;-87
2021/05/23 10:00:58;;;;;;;5.45;2.30;;;24.90;69.50;;;;;;4951699;28;20107;-83
2021/05/23 10:03:29;;;;;;;4.07;1.80;;;25.00;69.10;;;;;;4952485;28;20038;-84
2021/05/23 10:05:55;;;;;;;5.18;2.15;;;25.30;69.80;;;;;;4950782;29;20023;-86
2021/05/23 10:08:22;;;;;;;3.85;2.20;;;24.90;69.50;;;;;;4947846;29;20498;-82
2021/05/23 10:10:49;;;;;;;3.63;2.03;;;24.80;68.40;;;;;;4952457;28;20040;-76
2021/05/23 10:13:16;;;;;;;6.63;2.47;;;24.50;70.90;;;;;;4953490;28;20383;-82
2021/05/23 10:15:42;;;;;;;29.35;19.80;;;25.00;70.60;;;;;;4952845;29;20114;-76
2021/05/23 10:18:09;;;;;;;18.98;12.82;;;25.30;70.80;;;;;;4953784;28;20106;-76
2021/05/23 10:20:36;;;;;;;6.10;4.13;;;25.10;68.00;;;;;;4953379;28;20387;-77
2021/05/23 10:23:15;;;;;;;26.38;20.25;;;25.10;68.40;;;;;;4953873;28;20031;-77
2021/05/23 10:25:51;;;;;;;60.67;44.53;;;25.30;65.40;;;;;;4953520;28;20035;-78
2021/05/23 10:28:18;;;;;;;10.18;4.75;;;25.30;66.20;;;;;;4954039;28;20027;-80
2021/05/23 10:30:55;;;;;;;4.82;2.30;;;25.20;66.20;;;;;;4952790;29;20031;-78
2021/05/23 10:33:22;;;;;;;6.63;2.47;;;25.50;65.50;;;;;;4953619;28;20067;-80
2021/05/23 10:35:49;;;;;;;6.53;2.92;;;25.70;63.80;;;;;;4953615;28;20027;-78
2021/05/23 10:38:19;;;;;;;4.70;2.05;;;25.30;63.30;;;;;;4953744;28;20028;-83
2021/05/23 10:41:02;;;;;;;7.47;3.17;;;25.40;62.60;;;;;;4953026;28;20440;-78
2021/05/23 10:43:33;;;;;;;6.18;2.70;;;25.80;62.40;;;;;;4951612;29;20054;-78
2021/05/23 10:46:09;;;;;;;5.20;2.15;;;26.10;64.80;;;;;;4953594;28;20053;-77
2021/05/23 10:48:36;;;;;;;4.43;2.17;;;26.20;63.70;;;;;;4953463;28;20062;-78
2021/05/23 10:51:16;;;;;;;5.65;2.13;;;26.50;64.00;;;;;;4953663;29;20102;-78
2021/05/23 10:53:42;;;;;;;4.43;2.22;;;26.60;62.70;;;;;;4953507;29;20055;-75
2021/05/23 10:56:37;;;;;;;6.53;2.45;;;26.10;62.10;;;;;;4953441;29;20115;-77
2021/05/23 10:59:04;;;;;;;3.83;2.00;;;25.70;61.40;;;;;;4933225;29;20047;-77
2021/05/23 11:01:56;;;;;;;6.70;2.03;;;25.90;61.70;;;;;;4953655;29;20094;-78
2021/05/23 11:04:35;;;;;;;5.65;2.28;;;26.00;59.10;;;;;;4939029;29;20083;-77
2021/05/23 11:07:08;;;;;;;12.77;7.22;;;26.00;59.00;;;;;;4934244;29;20024;-79
2021/05/23 11:09:35;;;;;;;9.55;6.07;;;26.00;58.40;;;;;;4934378;29;20040;-78
2021/05/23 11:12:09;;;;;;;15.20;10.77;;;26.10;58.10;;;;;;4934756;29;20059;-80
2021/05/23 11:14:34;;;;;;;10.35;4.30;;;26.30;57.90;;;;;;4934343;29;20036;-79
2021/05/23 11:17:01;;;;;;;21.80;2.53;;;26.20;56.60;;;;;;4917202;29;20028;-81
2021/05/23 11:19:31;;;;;;;7.40;3.00;;;26.10;57.30;;;;;;4931594;29;20032;-80
2021/05/23 11:21:58;;;;;;;8.13;3.55;;;26.10;57.70;;;;;;4923589;29;20020;-79
2021/05/23 11:24:29;;;;;;;7.57;2.33;;;26.40;57.40;;;;;;4914904;29;20074;-79
2021/05/23 11:26:56;;;;;;;4.85;2.38;;;26.20;59.20;;;;;;4915094;29;20056;-81
2021/05/23 11:29:24;;;;;;;8.95;2.60;;;26.30;60.00;;;;;;4914986;29;20036;-79
2021/05/23 11:31:51;;;;;;;3.25;1.85;;;26.60;59.50;;;;;;4914916;29;20103;-79
2021/05/23 11:34:21;;;;;;;5.28;1.88;;;26.50;58.80;;;;;;4914277;29;20032;-80
2021/05/23 11:36:48;;;;;;;6.60;2.90;;;26.50;59.70;;;;;;4923878;29;20024;-80
2021/05/23 11:39:19;;;;;;;5.93;2.38;;;26.60;59.00;;;;;;4904429;29;20036;-80
2021/05/23 11:41:49;;;;;;;4.03;1.85;;;26.20;58.50;;;;;;4914727;29;20032;-77
2021/05/23 11:44:17;;;;;;;5.13;1.95;;;26.40;59.10;;;;;;4914606;29;20121;-83
2021/05/23 11:46:53;;;;;;;6.53;2.15;;;26.90;59.10;;;;;;4915557;29;20127;-81
2021/05/23 11:49:20;;;;;;;4.65;2.42;;;27.20;58.20;;;;;;4935046;29;20027;-78
2021/05/23 11:51:46;;;;;;;7.05;3.45;;;27.50;57.10;;;;;;4952918;28;20479;-78
2021/05/23 11:54:12;;;;;;;5.72;2.53;;;27.70;57.90;;;;;;4957469;29;20055;-85
2021/05/23 11:56:40;;;;;;;5.45;2.60;;;27.50;56.20;;;;;;4956918;29;20032;-81
2021/05/23 11:59:07;;;;;;;7.47;2.50;;;27.60;56.80;;;;;;4956049;29;20027;-82
2021/05/23 12:01:46;;;;;;;4.40;2.13;;;27.10;56.90;;;;;;4956316;29;20480;-79
2021/05/23 12:04:13;;;;;;;3.90;1.90;;;27.20;57.30;;;;;;4956026;29;20039;-84
2021/05/23 12:06:55;;;;;;;3.42;1.80;;;27.50;57.50;;;;;;4955889;29;20019;-82
2021/05/23 12:09:22;;;;;;;3.65;1.92;;;27.40;56.80;;;;;;4955949;29;20090;-83
2021/05/23 12:11:52;;;;;;;5.32;2.60;;;27.60;56.40;;;;;;4955813;29;20035;-82
2021/05/23 12:14:41;;;;;;;5.85;2.17;;;28.10;56.40;;;;;;4956243;29;20426;-79
2021/05/23 12:17:10;;;;;;;5.82;2.10;;;28.20;56.60;;;;;;4956451;29;20439;-79
2021/05/23 12:19:58;;;;;;;4.17;1.83;;;28.00;58.00;;;;;;4955912;29;20038;-80
2021/05/23 12:22:35;;;;;;;3.85;1.63;;;28.10;58.10;;;;;;4938826;29;20045;-82
2021/05/23 12:25:04;;;;;;;4.55;1.92;;;28.00;58.30;;;;;;4956033;29;20035;-79
2021/05/23 12:27:56;;;;;;;4.15;1.50;;;27.50;58.60;;;;;;4938796;29;20019;-77
2021/05/23 12:30:27;;;;;;;3.17;1.50;;;27.50;57.60;;;;;;4955468;29;20046;-83
2021/05/23 12:33:05;;;;;;;3.58;1.63;;;28.00;58.00;;;;;;4956248;29;20020;-82
2021/05/23 12:35:43;;;;;;;2.22;1.30;;;28.20;58.30;;;;;;4938641;29;20031;-81
2021/05/23 12:38:13;;;;;;;4.63;1.83;;;28.50;57.80;;;;;;4938781;29;20035;-79
2021/05/23 12:40:52;;;;;;;3.07;1.60;;;28.40;57.00;;;;;;4955766;29;20086;-79
2021/05/23 12:43:19;;;;;;;3.65;1.58;;;28.30;58.00;;;;;;4955972;29;20289;-81
2021/05/23 12:45:50;;;;;;;3.30;1.50;;;28.90;56.90;;;;;;4955621;29;20034;-81
2021/05/23 12:48:17;;;;;;;6.32;1.70;;;29.30;56.00;;;;;;4955565;29;20031;-79
2021/05/23 12:50:47;;;;;;;3.75;1.90;;;29.60;55.80;;;;;;4936710;29;20020;-81